Time;durP1;ratioP1;P1;durP2;ratioP2;P2;SDS_P1;SDS_P2;PMS_P1;PMS_P2;Temp;Humidity;BMP_temperature;BMP_pressure;BME280_temperature;BME280_humidity;BME280_pressure;Samples;Min_cycle;Max_cycle;Signal;HPM_P1;HPM_P2
2021/05/01 00:02:05;;;;;;;57.13;42.78;;;16.40;62.40;;;;;;4941424;28;20047;-58
2021/05/01 00:04:32;;;;;;;59.17;43.88;;;16.50;62.10;;;;;;4957752;28;20036;-57
2021/05/01 00:06:58;;;;;;;61.80;43.42;;;16.60;61.80;;;;;;4944330;28;20039;-58
2021/05/01 00:09:24;;;;;;;56.35;41.95;;;16.70;61.60;;;;;;4942919;28;20070;-58
2021/05/01 00:11:49;;;;;;;56.15;42.20;;;16.80;61.30;;;;;;4943301;28;20098;-58
2021/05/01 00:14:15;;;;;;;57.15;41.72;;;16.80;61.00;;;;;;4944440;28;20466;-58
2021/05/01 00:16:41;;;;;;;57.35;41.88;;;16.90;60.90;;;;;;4942114;28;20035;-58
2021/05/01 00:19:07;;;;;;;47.65;36.40;;;16.90;60.60;;;;;;4942638;28;20044;-58
2021/05/01 00:21:33;;;;;;;51.95;38.97;;;17.00;60.20;;;;;;4942681;28;20049;-58
2021/05/01 00:23:59;;;;;;;51.63;38.08;;;16.90;60.00;;;;;;4944579;28;20094;-58
2021/05/01 00:26:25;;;;;;;46.70;35.60;;;16.90;60.10;;;;;;4943315;28;20630;-58
2021/05/01 00:28:51;;;;;;;45.90;34.20;;;16.90;60.00;;;;;;4943246;28;20051;-58
2021/05/01 00:31:18;;;;;;;48.50;36.20;;;16.90;60.60;;;;;;4957282;28;20082;-58
2021/05/01 00:33:44;;;;;;;44.50;33.53;;;16.80;60.20;;;;;;4943240;28;20047;-58
2021/05/01 00:36:10;;;;;;;44.72;33.85;;;16.80;60.20;;;;;;4942735;28;20512;-58
2021/05/01 00:38:36;;;;;;;44.53;33.70;;;16.80;60.40;;;;;;4942270;28;20118;-59
2021/05/01 00:41:02;;;;;;;46.08;33.58;;;16.80;60.50;;;;;;4943343;28;20089;-59
2021/05/01 00:43:28;;;;;;;44.35;33.50;;;16.80;60.50;;;;;;4945242;28;20122;-58
2021/05/01 00:45:55;;;;;;;41.53;31.77;;;16.80;60.70;;;;;;4942884;28;20047;-59
2021/05/01 00:48:20;;;;;;;41.78;32.17;;;16.80;60.70;;;;;;4942563;28;20051;-59
2021/05/01 00:50:46;;;;;;;47.00;32.45;;;16.90;60.50;;;;;;4943653;28;20070;-58
2021/05/01 00:53:13;;;;;;;41.30;32.17;;;16.90;60.30;;;;;;4945102;28;20440;-58
2021/05/01 00:55:43;;;;;;;32.05;26.38;;;16.90;60.10;;;;;;4942355;28;20040;-58
2021/05/01 00:58:11;;;;;;;41.67;30.58;;;16.80;59.70;;;;;;4940870;28;20049;-58
2021/05/01 01:03:21;;;;;;;34.50;27.25;;;16.30;61.70;;;;;;4943350;28;20050;-58
2021/05/01 01:05:47;;;;;;;33.97;27.80;;;16.30;62.20;;;;;;4941885;28;20058;-58
2021/05/01 01:08:12;;;;;;;36.92;27.83;;;16.30;62.10;;;;;;4942575;28;20479;-58
2021/05/01 01:10:38;;;;;;;32.38;25.92;;;16.20;61.90;;;;;;4943609;28;20039;-58
2021/05/01 01:13:04;;;;;;;36.45;28.90;;;16.10;61.90;;;;;;4943087;28;20035;-58
2021/05/01 01:15:32;;;;;;;34.13;27.02;;;15.90;62.70;;;;;;4939130;28;20569;-58
2021/05/01 01:17:59;;;;;;;33.55;24.92;;;15.60;63.60;;;;;;4942237;28;20078;-58
2021/05/01 01:20:26;;;;;;;36.45;27.25;;;15.60;64.10;;;;;;4955430;28;20047;-58
2021/05/01 01:22:52;;;;;;;35.55;26.75;;;15.80;63.80;;;;;;4940296;28;20043;-59
2021/05/01 01:25:19;;;;;;;32.95;26.95;;;16.00;63.20;;;;;;4941342;28;20915;-58
2021/05/01 01:27:46;;;;;;;34.40;26.17;;;16.10;62.70;;;;;;4942455;28;20078;-59
2021/05/01 01:30:14;;;;;;;27.58;24.77;;;16.20;62.50;;;;;;4942745;28;20053;-59
2021/05/01 01:32:40;;;;;;;29.27;25.65;;;16.20;60.70;;;;;;4941308;28;20066;-59
2021/05/01 01:35:08;;;;;;;29.98;24.50;;;15.50;61.20;;;;;;4941836;28;20071;-59
2021/05/01 01:37:38;;;;;;;34.08;26.05;;;14.90;63.90;;;;;;4941891;28;20039;-58
2021/05/01 01:40:05;;;;;;;31.33;25.20;;;14.70;64.60;;;;;;4941654;28;20035;-58
2021/05/01 01:42:30;;;;;;;30.73;27.38;;;14.40;66.00;;;;;;4942009;28;20050;-58
2021/05/01 01:44:56;;;;;;;30.60;27.17;;;14.10;65.90;;;;;;4940087;28;20483;-58
2021/05/01 01:47:23;;;;;;;31.85;28.25;;;13.40;66.90;;;;;;4942089;28;20047;-58
2021/05/01 01:49:49;;;;;;;32.60;26.23;;;12.60;68.10;;;;;;4942984;28;20554;-58
2021/05/01 01:52:14;;;;;;;33.15;27.38;;;12.10;70.40;;;;;;4941111;28;20043;-58
2021/05/01 01:54:40;;;;;;;31.27;26.80;;;12.00;71.90;;;;;;4941598;28;20039;-58
2021/05/01 01:57:07;;;;;;;32.67;27.75;;;12.00;71.90;;;;;;4941361;28;20077;-58
2021/05/01 01:59:32;;;;;;;32.47;25.27;;;11.90;71.70;;;;;;4941589;28;20038;-59
2021/05/01 02:01:58;;;;;;;32.58;29.17;;;12.00;72.90;;;;;;4943529;28;20043;-58
2021/05/01 02:04:24;;;;;;;33.97;30.52;;;12.20;72.30;;;;;;4940989;28;20055;-58
2021/05/01 02:06:50;;;;;;;32.47;28.95;;;12.40;71.60;;;;;;4941805;28;20179;-58
2021/05/01 02:09:16;;;;;;;32.33;28.33;;;12.60;70.80;;;;;;4923579;28;20455;-58
2021/05/01 02:11:41;;;;;;;31.50;23.08;;;12.50;70.10;;;;;;4940760;28;20043;-58
2021/05/01 02:14:08;;;;;;;30.02;23.25;;;12.40;71.30;;;;;;4942061;28;20039;-59
2021/05/01 02:16:34;;;;;;;31.55;24.67;;;12.40;72.50;;;;;;4942878;28;20130;-58
2021/05/01 02:19:02;;;;;;;31.50;23.67;;;12.60;72.50;;;;;;4941913;28;20043;-58
2021/05/01 02:21:28;;;;;;;29.67;22.77;;;13.10;71.80;;;;;;4943341;28;20066;-58
2021/05/01 02:23:54;;;;;;;28.58;21.67;;;13.70;70.40;;;;;;4940951;28;20476;-58
2021/05/01 02:26:20;;;;;;;30.15;23.15;;;14.30;69.00;;;;;;4941417;28;20048;-58
2021/05/01 02:28:46;;;;;;;30.58;27.25;;;14.70;67.60;;;;;;4941713;28;20082;-58
2021/05/01 02:31:12;;;;;;;31.20;22.98;;;15.00;65.70;;;;;;4940893;28;20377;-58
2021/05/01 02:33:38;;;;;;;28.75;25.05;;;15.10;65.50;;;;;;4940806;28;20431;-58
2021/05/01 02:36:04;;;;;;;28.10;22.08;;;15.20;64.50;;;;;;4941881;28;20118;-58
2021/05/01 02:38:30;;;;;;;29.25;22.90;;;14.80;64.80;;;;;;4940572;28;20047;-58
2021/05/01 02:40:56;;;;;;;30.73;22.45;;;14.40;65.50;;;;;;4941779;28;20039;-58
2021/05/01 02:43:22;;;;;;;27.27;24.42;;;14.10;66.70;;;;;;4940441;28;20433;-59
2021/05/01 02:45:48;;;;;;;28.08;21.08;;;14.00;66.80;;;;;;4940835;28;20043;-58
2021/05/01 02:48:15;;;;;;;28.33;21.52;;;14.00;67.30;;;;;;4941299;28;20079;-58
2021/05/01 02:50:41;;;;;;;24.75;21.88;;;14.20;67.60;;;;;;4940489;28;20039;-58
2021/05/01 02:53:08;;;;;;;27.65;24.80;;;14.40;66.30;;;;;;4939665;28;20410;-58
2021/05/01 02:55:34;;;;;;;31.73;26.65;;;14.10;65.50;;;;;;4938888;28;20058;-58
2021/05/01 02:57:59;;;;;;;29.30;25.73;;;13.60;65.80;;;;;;4940937;28;20043;-58
2021/05/01 03:00:27;;;;;;;26.73;23.83;;;12.90;66.90;;;;;;4940615;28;20062;-58
2021/05/01 03:02:54;;;;;;;24.80;20.50;;;12.20;68.70;;;;;;4953767;28;20039;-58
2021/05/01 03:05:22;;;;;;;24.67;19.27;;;11.70;71.10;;;;;;4945334;28;22340;-58
2021/05/01 03:07:47;;;;;;;22.70;18.50;;;12.00;73.00;;;;;;4955173;28;20121;-58
2021/05/01 03:10:21;;;;;;;24.08;19.10;;;12.20;72.10;;;;;;4939967;28;20039;-58
2021/05/01 03:12:46;;;;;;;29.42;24.25;;;12.60;72.10;;;;;;4940440;28;20047;-58
2021/05/01 03:15:13;;;;;;;23.00;18.30;;;12.80;70.60;;;;;;4940215;28;20035;-58
2021/05/01 03:17:40;;;;;;;25.90;19.38;;;12.80;70.50;;;;;;4941044;28;20031;-58
2021/05/01 03:20:07;;;;;;;26.27;19.35;;;13.30;70.00;;;;;;4941378;28;20039;-64
2021/05/01 03:22:33;;;;;;;24.10;20.52;;;13.70;69.00;;;;;;4943388;28;20118;-64
2021/05/01 03:24:59;;;;;;;21.92;18.75;;;14.10;67.50;;;;;;4944907;28;20055;-64
2021/05/01 03:27:25;;;;;;;24.98;18.35;;;14.20;66.80;;;;;;4944872;28;20054;-64
2021/05/01 03:29:51;;;;;;;22.38;17.23;;;14.20;66.50;;;;;;4943371;28;20044;-64
2021/05/01 03:32:17;;;;;;;23.92;18.17;;;14.30;66.40;;;;;;4943751;28;20118;-64
2021/05/01 03:34:43;;;;;;;22.58;17.20;;;14.50;66.50;;;;;;4943888;28;20146;-64
2021/05/01 03:37:09;;;;;;;23.38;17.75;;;14.70;65.80;;;;;;4945058;28;20051;-64
2021/05/01 03:39:35;;;;;;;21.25;16.75;;;15.00;65.10;;;;;;4943992;28;20040;-64
2021/05/01 03:42:01;;;;;;;21.23;16.83;;;15.30;64.50;;;;;;4943399;28;20874;-64
2021/05/01 03:44:28;;;;;;;20.55;15.98;;;15.50;63.80;;;;;;4944609;28;20059;-64
2021/05/01 03:46:54;;;;;;;20.90;17.63;;;15.70;63.30;;;;;;4945163;28;20066;-64
2021/05/01 03:49:21;;;;;;;20.23;15.35;;;15.80;62.40;;;;;;4940712;28;20122;-64
2021/05/01 03:51:47;;;;;;;21.80;16.58;;;15.90;62.20;;;;;;4942778;28;20054;-64
2021/05/01 03:54:13;;;;;;;18.48;14.95;;;15.90;61.90;;;;;;4942530;28;20031;-64
2021/05/01 03:56:39;;;;;;;20.20;16.38;;;15.90;61.50;;;;;;4943854;28;20040;-64
2021/05/01 03:59:05;;;;;;;21.83;19.52;;;15.70;61.40;;;;;;4943814;28;20119;-64
2021/05/01 04:01:31;;;;;;;22.48;15.77;;;15.00;61.50;;;;;;4943966;28;20035;-64
2021/05/01 04:03:57;;;;;;;18.20;14.52;;;14.60;63.10;;;;;;4943789;28;20050;-64
2021/05/01 04:06:23;;;;;;;18.83;15.18;;;14.50;64.20;;;;;;4944346;28;21055;-64
2021/05/01 04:08:49;;;;;;;20.27;15.30;;;14.50;64.40;;;;;;4943452;28;20039;-64
2021/05/01 04:11:15;;;;;;;20.10;15.85;;;14.70;64.20;;;;;;4943215;28;20078;-64
2021/05/01 04:13:47;;;;;;;18.00;14.77;;;14.70;63.70;;;;;;4943479;28;20155;-64
2021/05/01 04:16:14;;;;;;;18.08;14.55;;;14.70;63.80;;;;;;4943623;28;20039;-64
2021/05/01 04:18:40;;;;;;;16.60;13.13;;;14.80;63.80;;;;;;4943008;28;20035;-63
2021/05/01 04:21:06;;;;;;;19.10;14.30;;;15.00;63.50;;;;;;4943337;28;20079;-64
2021/05/01 04:23:33;;;;;;;18.48;14.27;;;15.30;62.90;;;;;;4943291;28;20091;-64
2021/05/01 04:25:59;;;;;;;20.23;15.18;;;15.50;62.20;;;;;;4942877;28;20114;-64
2021/05/01 04:28:25;;;;;;;17.92;13.50;;;15.70;61.50;;;;;;4943195;28;20047;-64
2021/05/01 04:30:51;;;;;;;19.45;14.68;;;15.80;61.50;;;;;;4943316;28;20147;-64
2021/05/01 04:33:17;;;;;;;16.88;13.80;;;15.70;61.00;;;;;;4942101;28;20118;-64
2021/05/01 04:35:43;;;;;;;22.08;19.17;;;15.60;61.00;;;;;;4942288;28;20046;-64
2021/05/01 04:38:08;;;;;;;19.23;16.73;;;15.60;60.70;;;;;;4941569;28;20047;-64
2021/05/01 04:40:34;;;;;;;16.05;13.27;;;15.50;60.90;;;;;;4943436;28;20098;-65
2021/05/01 04:43:03;;;;;;;15.68;12.93;;;15.50;61.10;;;;;;4943498;28;20117;-64
2021/05/01 04:45:29;;;;;;;17.48;12.82;;;15.40;61.20;;;;;;4942935;28;20095;-65
2021/05/01 04:47:55;;;;;;;23.30;20.73;;;15.20;61.60;;;;;;4942204;28;20035;-65
2021/05/01 04:50:21;;;;;;;21.73;19.63;;;14.70;62.10;;;;;;4942431;28;20554;-65
2021/05/01 04:52:47;;;;;;;23.33;20.85;;;14.40;62.70;;;;;;4943726;28;20901;-64
2021/05/01 04:55:13;;;;;;;21.70;19.23;;;13.90;63.30;;;;;;4943167;28;20038;-65
2021/05/01 04:57:46;;;;;;;25.02;22.48;;;13.30;64.90;;;;;;4942340;28;21043;-64
2021/05/01 05:00:14;;;;;;;16.85;12.93;;;12.80;66.20;;;;;;4943831;28;20387;-64
2021/05/01 05:02:40;;;;;;;25.05;22.45;;;12.70;67.90;;;;;;4944423;28;20083;-64
2021/05/01 05:05:08;;;;;;;25.77;23.08;;;13.00;67.50;;;;;;4938654;28;20039;-64
2021/05/01 05:07:34;;;;;;;14.65;12.68;;;13.20;66.50;;;;;;4941958;28;20051;-64
2021/05/01 05:10:00;;;;;;;13.40;11.00;;;13.40;66.70;;;;;;4941964;28;20046;-64
2021/05/01 05:12:26;;;;;;;15.45;11.93;;;13.80;66.50;;;;;;4942651;28;20039;-64
2021/05/01 05:14:52;;;;;;;15.57;11.68;;;14.20;65.70;;;;;;4942962;28;20460;-64
2021/05/01 05:17:18;;;;;;;14.75;10.82;;;14.50;64.40;;;;;;4942561;28;20043;-65
2021/05/01 05:19:45;;;;;;;15.55;12.35;;;14.70;64.10;;;;;;4943152;28;20047;-64
2021/05/01 05:22:10;;;;;;;19.13;13.07;;;14.90;63.30;;;;;;4944133;28;20074;-64
2021/05/01 05:24:37;;;;;;;21.80;11.55;;;15.20;62.60;;;;;;4943097;28;20070;-64
2021/05/01 05:27:03;;;;;;;15.73;10.85;;;15.40;61.80;;;;;;4942677;28;20035;-64
2021/05/01 05:29:29;;;;;;;15.65;10.82;;;15.60;61.30;;;;;;4941585;28;20068;-64
2021/05/01 05:31:56;;;;;;;15.82;10.23;;;15.70;61.50;;;;;;4941790;28;20423;-64
2021/05/01 05:34:22;;;;;;;15.07;10.82;;;15.60;60.80;;;;;;4942452;28;20059;-65
2021/05/01 05:36:48;;;;;;;17.50;10.98;;;15.70;60.70;;;;;;4941975;28;20047;-64
2021/05/01 05:39:14;;;;;;;13.45;10.32;;;15.70;60.60;;;;;;4942702;28;20574;-64
2021/05/01 05:41:41;;;;;;;17.35;10.98;;;15.70;60.40;;;;;;4956704;28;20037;-65
2021/05/01 05:44:07;;;;;;;13.68;11.98;;;15.80;60.30;;;;;;4937818;28;20053;-65
2021/05/01 05:46:33;;;;;;;12.38;9.95;;;15.90;60.00;;;;;;4941014;28;20039;-66
2021/05/01 05:48:59;;;;;;;13.98;11.32;;;15.80;59.90;;;;;;4942713;28;20027;-65
2021/05/01 05:51:25;;;;;;;13.88;9.68;;;15.90;60.00;;;;;;4941494;28;20058;-64
2021/05/01 05:53:51;;;;;;;12.35;9.95;;;15.90;60.40;;;;;;4941084;28;20047;-65
2021/05/01 05:56:17;;;;;;;13.63;10.02;;;15.90;60.60;;;;;;4955038;28;20047;-64
2021/05/01 05:58:43;;;;;;;14.35;10.27;;;16.00;60.90;;;;;;4942137;28;20506;-65
2021/05/01 06:01:10;;;;;;;19.63;11.57;;;16.10;61.00;;;;;;4940316;28;20046;-65
2021/05/01 06:03:37;;;;;;;16.40;10.32;;;16.20;60.90;;;;;;4941401;28;20043;-65
2021/05/01 06:06:11;;;;;;;20.23;11.75;;;16.20;61.30;;;;;;4941453;28;20138;-66
2021/05/01 06:08:38;;;;;;;22.52;10.02;;;16.10;62.20;;;;;;4941502;28;20050;-64
2021/05/01 06:11:05;;;;;;;24.13;13.68;;;16.00;65.40;;;;;;4941018;28;20043;-65
2021/05/01 06:13:33;;;;;;;20.80;10.63;;;16.20;66.30;;;;;;4940902;28;20086;-65
2021/05/01 06:16:00;;;;;;;35.50;24.63;;;16.30;67.30;;;;;;4942832;28;20031;-64
2021/05/01 06:18:32;;;;;;;245.30;202.48;;;16.30;67.40;;;;;;4942761;28;20058;-64
2021/05/01 06:20:58;;;;;;;270.98;243.25;;;16.30;69.00;;;;;;4940372;28;20040;-67
2021/05/01 06:23:25;;;;;;;92.78;81.80;;;16.40;69.00;;;;;;4939450;28;20039;-66
2021/05/01 06:25:52;;;;;;;35.17;30.05;;;16.40;67.10;;;;;;4940542;28;20165;-67
2021/05/01 06:28:18;;;;;;;26.67;20.63;;;16.50;65.60;;;;;;4940262;28;20059;-66
2021/05/01 06:30:44;;;;;;;20.25;14.55;;;16.50;65.10;;;;;;4941968;28;20130;-66
2021/05/01 06:33:15;;;;;;;15.23;12.20;;;16.50;64.70;;;;;;4955804;28;20470;-66
2021/05/01 06:35:43;;;;;;;15.13;10.15;;;16.70;63.70;;;;;;4941638;28;20113;-65
2021/05/01 06:38:09;;;;;;;10.23;8.30;;;16.70;63.10;;;;;;4940693;28;20043;-64
2021/05/01 06:40:47;;;;;;;16.92;11.75;;;16.80;62.70;;;;;;4940370;28;20058;-65
2021/05/01 06:43:43;;;;;;;11.50;10.15;;;16.90;61.90;;;;;;4940295;28;20035;-65
2021/05/01 06:46:09;;;;;;;11.07;7.32;;;17.00;60.70;;;;;;4940534;28;20039;-65
2021/05/01 06:48:36;;;;;;;13.35;9.48;;;17.10;60.60;;;;;;4941055;28;20142;-65
2021/05/01 06:51:03;;;;;;;11.30;6.43;;;17.20;59.80;;;;;;4941055;28;20047;-67
2021/05/01 06:53:30;;;;;;;11.00;8.70;;;17.00;60.00;;;;;;4942030;28;20498;-63
2021/05/01 06:56:01;;;;;;;9.55;6.68;;;17.10;59.70;;;;;;4939324;28;20162;-63
2021/05/01 06:58:32;;;;;;;11.57;7.05;;;17.20;59.60;;;;;;4940765;28;20118;-63
2021/05/01 07:01:02;;;;;;;9.25;8.20;;;17.40;59.20;;;;;;4940109;28;20507;-64
2021/05/01 07:03:31;;;;;;;8.35;7.28;;;17.60;58.40;;;;;;4941198;28;20400;-63
2021/05/01 07:05:59;;;;;;;11.73;10.55;;;17.80;57.90;;;;;;4941260;28;20055;-63
2021/05/01 07:08:25;;;;;;;9.20;7.60;;;17.70;57.30;;;;;;4939554;28;20039;-63
2021/05/01 07:10:52;;;;;;;9.88;6.32;;;17.70;57.50;;;;;;4940813;28;20070;-63
2021/05/01 07:13:20;;;;;;;12.60;11.30;;;17.80;57.30;;;;;;4941991;28;20118;-63
2021/05/01 07:15:45;;;;;;;7.78;6.45;;;18.00;56.60;;;;;;4952405;28;20047;-64
2021/05/01 07:18:12;;;;;;;7.72;6.82;;;18.10;56.80;;;;;;4938798;28;20498;-63
2021/05/01 07:20:38;;;;;;;10.23;7.93;;;18.40;56.10;;;;;;4939256;28;20043;-63
2021/05/01 07:23:04;;;;;;;13.00;11.05;;;18.50;55.50;;;;;;4940924;28;20043;-63
2021/05/01 07:25:30;;;;;;;10.77;9.48;;;18.40;54.70;;;;;;4940904;28;20105;-63
2021/05/01 07:28:10;;;;;;;9.07;6.00;;;18.30;55.00;;;;;;4938813;28;20147;-65
2021/05/01 07:30:43;;;;;;;12.68;7.28;;;18.10;55.90;;;;;;4943239;28;20087;-66
2021/05/01 07:33:30;;;;;;;10.35;7.60;;;18.30;56.10;;;;;;4940634;28;20046;-66
2021/05/01 07:36:01;;;;;;;10.98;6.57;;;18.70;56.20;;;;;;4939021;28;20287;-66
2021/05/01 07:38:27;;;;;;;10.68;6.78;;;19.00;55.60;;;;;;4941073;28;20043;-66
2021/05/01 07:40:58;;;;;;;9.50;7.53;;;19.20;55.20;;;;;;4941118;28;20032;-66
2021/05/01 07:43:26;;;;;;;9.40;6.75;;;19.40;54.50;;;;;;4940056;28;20058;-64
2021/05/01 07:45:57;;;;;;;9.60;7.63;;;19.60;54.40;;;;;;4940851;28;20035;-65
2021/05/01 07:48:25;;;;;;;8.75;7.75;;;19.60;53.70;;;;;;4942193;28;20118;-67
2021/05/01 07:50:51;;;;;;;8.93;7.30;;;19.60;53.20;;;;;;4940301;28;20050;-65
2021/05/01 07:53:17;;;;;;;7.82;6.95;;;19.50;53.50;;;;;;4941584;28;20186;-65
2021/05/01 07:55:43;;;;;;;8.63;6.72;;;19.50;53.70;;;;;;4940815;28;20043;-65
2021/05/01 07:58:09;;;;;;;10.15;7.20;;;19.40;53.70;;;;;;4940455;28;20038;-64
2021/05/01 08:00:36;;;;;;;9.10;7.88;;;19.30;53.50;;;;;;4940736;28;20058;-65
2021/05/01 08:03:03;;;;;;;8.93;7.47;;;19.10;53.50;;;;;;4940131;28;20110;-64
2021/05/01 08:05:29;;;;;;;13.05;7.15;;;18.90;53.70;;;;;;4943212;28;20039;-66
2021/05/01 08:07:56;;;;;;;10.38;7.82;;;18.80;53.80;;;;;;4943969;28;20157;-64
2021/05/01 08:10:22;;;;;;;9.77;7.18;;;18.60;53.20;;;;;;4943664;28;20110;-65
2021/05/01 08:12:48;;;;;;;11.25;6.38;;;18.40;53.30;;;;;;4942823;28;20115;-64
2021/05/01 08:15:14;;;;;;;8.30;5.63;;;18.20;54.00;;;;;;4943622;28;20429;-65
2021/05/01 08:17:41;;;;;;;7.40;5.38;;;18.10;54.50;;;;;;4943477;28;20041;-64
2021/05/01 08:20:10;;;;;;;11.55;5.35;;;18.10;54.60;;;;;;4942830;28;20110;-65
2021/05/01 08:22:37;;;;;;;9.60;5.65;;;18.20;55.00;;;;;;4941650;28;20063;-64
2021/05/01 08:25:08;;;;;;;15.70;5.90;;;18.40;54.80;;;;;;4944236;28;20063;-69
2021/05/01 08:27:34;;;;;;;6.90;5.88;;;18.50;52.80;;;;;;4941607;28;20039;-69
2021/05/01 08:30:01;;;;;;;8.98;6.47;;;18.50;52.00;;;;;;4942414;28;20110;-66
2021/05/01 08:32:27;;;;;;;6.82;6.13;;;18.50;52.60;;;;;;4944039;28;20043;-66
2021/05/01 08:34:53;;;;;;;8.73;5.60;;;18.40;52.00;;;;;;4943251;28;20040;-66
2021/05/01 08:37:19;;;;;;;7.00;4.85;;;18.40;52.00;;;;;;4942773;28;20072;-66
2021/05/01 08:39:44;;;;;;;5.90;4.50;;;18.20;52.00;;;;;;4943510;28;20040;-66
2021/05/01 08:42:10;;;;;;;6.57;5.60;;;18.10;52.30;;;;;;4941500;28;20115;-66
2021/05/01 08:44:36;;;;;;;9.05;6.72;;;17.90;52.80;;;;;;4939184;28;20095;-66
2021/05/01 08:47:05;;;;;;;6.72;6.03;;;17.80;53.40;;;;;;4943604;28;21031;-67
2021/05/01 08:49:31;;;;;;;10.90;7.18;;;17.80;53.70;;;;;;4942135;28;20118;-66
2021/05/01 08:51:58;;;;;;;8.52;7.50;;;17.80;53.70;;;;;;4941397;28;20093;-64
2021/05/01 08:54:24;;;;;;;10.63;8.13;;;17.60;53.30;;;;;;4942544;28;20042;-64
2021/05/01 08:56:50;;;;;;;9.02;7.57;;;17.70;53.80;;;;;;4941991;28;20055;-65
2021/05/01 08:59:17;;;;;;;9.48;8.63;;;18.00;54.00;;;;;;4943228;28;20043;-65
2021/05/01 09:01:43;;;;;;;10.13;8.38;;;18.00;52.30;;;;;;4941553;28;20102;-64
2021/05/01 09:04:10;;;;;;;10.20;8.95;;;18.10;53.20;;;;;;4942529;28;20074;-64
2021/05/01 09:06:37;;;;;;;9.43;8.07;;;18.20;52.90;;;;;;4942801;28;20043;-64
2021/05/01 09:09:05;;;;;;;9.55;8.52;;;18.20;53.20;;;;;;4943498;28;20035;-64
2021/05/01 09:11:33;;;;;;;10.18;9.07;;;18.10;52.30;;;;;;4941833;28;20197;-65
2021/05/01 09:13:59;;;;;;;10.93;7.70;;;18.00;53.20;;;;;;4941185;28;20043;-65
2021/05/01 09:16:25;;;;;;;8.93;7.85;;;18.00;52.80;;;;;;4943479;28;20050;-65
2021/05/01 09:18:54;;;;;;;8.20;7.22;;;17.90;52.60;;;;;;4941046;28;20051;-66
2021/05/01 09:21:28;;;;;;;8.27;7.35;;;17.80;53.10;;;;;;4944520;28;20067;-65
2021/05/01 09:23:54;;;;;;;6.80;6.00;;;17.90;53.40;;;;;;4940864;28;20074;-65
2021/05/01 09:26:41;;;;;;;8.80;6.75;;;17.80;53.20;;;;;;4942311;28;20073;-64
2021/05/01 09:29:07;;;;;;;7.13;6.43;;;17.80;52.30;;;;;;4943216;28;20055;-66
2021/05/01 09:31:48;;;;;;;6.82;6.13;;;17.80;53.50;;;;;;4941118;28;20081;-65
2021/05/01 09:34:13;;;;;;;8.98;6.38;;;18.00;53.20;;;;;;4941838;28;20054;-68
2021/05/01 09:36:40;;;;;;;6.80;5.03;;;17.80;51.50;;;;;;4941114;28;20439;-67
2021/05/01 09:39:11;;;;;;;8.25;6.15;;;17.80;52.60;;;;;;4941956;28;20069;-67
2021/05/01 09:41:41;;;;;;;6.60;4.65;;;17.90;52.20;;;;;;4940812;28;20043;-66
2021/05/01 09:44:12;;;;;;;7.10;6.10;;;18.00;52.30;;;;;;4942274;28;20050;-67
2021/05/01 09:46:38;;;;;;;9.82;7.70;;;18.10;51.10;;;;;;4942752;28;20043;-70
2021/05/01 09:49:17;;;;;;;7.13;5.20;;;17.80;49.40;;;;;;4941007;28;20102;-66
2021/05/01 09:52:00;;;;;;;7.22;5.40;;;17.70;50.70;;;;;;4941679;28;20035;-66
2021/05/01 09:54:27;;;;;;;9.43;7.38;;;17.50;51.80;;;;;;4941308;28;20110;-69
2021/05/01 09:57:01;;;;;;;8.30;6.07;;;17.50;51.60;;;;;;4942462;28;20043;-66
2021/05/01 09:59:55;;;;;;;13.82;7.25;;;17.70;51.90;;;;;;4941520;28;20032;-67
2021/05/01 10:02:24;;;;;;;7.47;5.82;;;17.80;51.20;;;;;;4941184;28;20047;-66
2021/05/01 10:05:03;;;;;;;10.55;6.88;;;17.80;51.70;;;;;;4942199;28;20043;-65
2021/05/01 10:07:29;;;;;;;11.82;6.72;;;18.00;51.50;;;;;;4942877;28;20143;-66
2021/05/01 10:09:56;;;;;;;10.25;7.68;;;17.90;51.30;;;;;;4941734;28;20119;-66
2021/05/01 10:12:22;;;;;;;8.93;7.20;;;17.80;51.20;;;;;;4941556;28;20079;-66
2021/05/01 10:14:50;;;;;;;7.75;6.53;;;17.70;51.20;;;;;;4941237;28;20395;-59
2021/05/01 10:17:22;;;;;;;12.60;7.38;;;17.50;51.30;;;;;;4941441;28;20035;-60
2021/05/01 10:19:55;;;;;;;11.05;7.40;;;17.40;52.00;;;;;;4939878;28;20040;-59
2021/05/01 10:22:31;;;;;;;7.55;6.47;;;17.40;52.20;;;;;;4941406;28;20791;-59
2021/05/01 10:24:59;;;;;;;12.32;6.68;;;17.40;52.20;;;;;;4941806;28;20039;-59
2021/05/01 10:27:26;;;;;;;11.48;7.72;;;17.50;52.40;;;;;;4939015;28;20163;-59
2021/05/01 10:30:28;;;;;;;9.65;7.53;;;17.70;52.50;;;;;;4941472;28;20059;-59
2021/05/01 10:33:18;;;;;;;9.30;7.65;;;17.90;52.90;;;;;;4940518;28;20035;-60
2021/05/01 10:36:20;;;;;;;10.40;8.25;;;18.00;52.80;;;;;;4941647;28;20035;-59
2021/05/01 10:39:01;;;;;;;14.75;9.05;;;18.10;52.40;;;;;;4940940;28;20480;-59
2021/05/01 10:41:31;;;;;;;12.30;8.15;;;18.10;52.80;;;;;;4940727;28;20044;-59
2021/05/01 10:43:59;;;;;;;12.15;9.35;;;18.20;52.80;;;;;;4941610;28;20539;-59
2021/05/01 10:46:33;;;;;;;11.88;8.32;;;18.30;52.70;;;;;;4940727;28;20067;-59
2021/05/01 10:49:00;;;;;;;9.30;7.18;;;18.40;52.40;;;;;;4940072;28;20046;-59
2021/05/01 10:51:35;;;;;;;13.40;8.02;;;18.40;52.10;;;;;;4940930;28;20599;-66
2021/05/01 10:54:15;;;;;;;10.13;6.78;;;18.50;52.70;;;;;;4940929;28;22232;-66
2021/05/01 10:56:59;;;;;;;14.63;9.38;;;18.60;52.30;;;;;;4940285;28;20048;-67
2021/05/01 10:59:29;;;;;;;13.40;9.80;;;18.70;52.80;;;;;;4939772;28;20067;-66
2021/05/01 11:01:59;;;;;;;13.57;8.68;;;18.90;52.40;;;;;;4941734;28;20039;-67
2021/05/01 11:04:28;;;;;;;9.10;7.22;;;19.00;52.20;;;;;;4941518;28;20131;-67
2021/05/01 11:07:31;;;;;;;10.88;8.02;;;19.00;51.00;;;;;;4940954;28;20353;-65
2021/05/01 11:10:04;;;;;;;10.60;7.53;;;19.00;51.90;;;;;;4940016;28;20078;-67
2021/05/01 11:12:37;;;;;;;9.70;6.68;;;19.10;52.00;;;;;;4940022;28;20549;-65
2021/05/01 11:15:11;;;;;;;9.27;7.13;;;19.20;51.70;;;;;;4939334;28;20559;-65
2021/05/01 11:17:55;;;;;;;9.05;6.75;;;19.30;51.50;;;;;;4940831;28;20043;-65
2021/05/01 11:20:22;;;;;;;;;;;19.40;51.00;;;;;;4941548;28;20039;-66
2021/05/01 11:22:51;;;;;;;10.05;7.97;;;19.40;52.00;;;;;;4922914;28;19949;-69
2021/05/01 11:25:20;;;;;;;11.98;8.45;;;19.40;49.50;;;;;;4939846;28;20129;-68
2021/05/01 11:27:48;;;;;;;14.98;9.23;;;19.20;50.20;;;;;;4941264;28;20042;-66
2021/05/01 11:30:16;;;;;;;8.93;7.65;;;19.20;50.90;;;;;;4939680;28;20102;-66
2021/05/01 11:32:43;;;;;;;12.30;7.85;;;19.10;50.50;;;;;;4939788;28;20039;-66
2021/05/01 11:35:20;;;;;;;14.60;7.82;;;19.00;50.80;;;;;;4940908;28;20044;-68
2021/05/01 11:37:51;;;;;;;11.00;8.00;;;18.90;50.80;;;;;;4940219;28;20095;-66
2021/05/01 11:40:19;;;;;;;11.02;7.80;;;18.70;51.40;;;;;;4941293;28;20049;-66
2021/05/01 11:42:46;;;;;;;6.68;5.85;;;18.70;50.30;;;;;;4937719;28;20055;-69
2021/05/01 11:45:17;;;;;;;9.10;6.43;;;18.30;49.80;;;;;;4942771;28;20039;-58
2021/05/01 11:48:01;;;;;;;7.70;6.80;;;18.10;51.40;;;;;;4944311;28;20101;-60
2021/05/01 11:50:28;;;;;;;7.75;6.10;;;18.00;50.70;;;;;;4944051;28;20051;-60
2021/05/01 11:53:24;;;;;;;7.75;6.07;;;17.60;52.00;;;;;;4955625;28;20040;-67
2021/05/01 11:55:57;;;;;;;8.45;7.15;;;17.50;53.00;;;;;;4949478;28;20051;-67
2021/05/01 11:58:33;;;;;;;;;;;17.50;52.60;;;;;;4945624;28;20043;-67
2021/05/01 12:01:33;;;;;;;13.15;7.57;;;17.50;52.70;;;;;;4943100;28;19926;-60
2021/05/01 12:04:01;;;;;;;8.50;6.55;;;17.30;52.50;;;;;;4951866;28;20137;-59
2021/05/01 12:06:40;;;;;;;9.20;7.15;;;17.10;53.60;;;;;;4941962;28;20054;-67
2021/05/01 12:09:16;;;;;;;10.38;7.47;;;17.10;54.40;;;;;;4943565;28;20127;-67
2021/05/01 12:11:47;;;;;;;8.50;7.07;;;17.10;54.50;;;;;;4942958;28;20052;-67
2021/05/01 12:14:15;;;;;;;8.60;6.10;;;17.20;54.30;;;;;;4943644;28;20059;-67
2021/05/01 12:16:43;;;;;;;7.40;6.60;;;17.20;52.30;;;;;;4944419;28;20040;-67
2021/05/01 12:19:20;;;;;;;8.93;6.32;;;17.10;53.60;;;;;;4943787;28;20126;-67
2021/05/01 12:21:46;;;;;;;9.75;7.30;;;17.10;55.00;;;;;;4942567;28;20115;-66
2021/05/01 12:24:31;;;;;;;11.02;6.25;;;17.20;55.00;;;;;;4942667;28;20039;-59
2021/05/01 12:26:58;;;;;;;9.52;6.15;;;17.50;55.20;;;;;;4944057;28;20063;-59
2021/05/01 12:29:25;;;;;;;8.73;5.97;;;17.70;54.80;;;;;;4943358;28;20052;-57
2021/05/01 12:31:53;;;;;;;5.72;5.13;;;18.00;54.40;;;;;;4943529;28;20452;-59
2021/05/01 12:34:20;;;;;;;9.20;5.68;;;18.10;53.10;;;;;;4943760;28;20419;-57
2021/05/01 12:36:48;;;;;;;12.27;5.90;;;18.20;52.90;;;;;;4943699;28;20039;-65
2021/05/01 12:39:16;;;;;;;7.50;5.55;;;18.30;52.90;;;;;;4943083;28;20062;-64
2021/05/01 12:41:50;;;;;;;8.32;5.93;;;18.40;52.70;;;;;;4943018;28;20147;-67
2021/05/01 12:44:36;;;;;;;7.57;5.05;;;18.60;52.30;;;;;;4942488;28;20436;-58
2021/05/01 12:47:04;;;;;;;6.30;5.10;;;18.70;51.90;;;;;;4943791;28;20532;-59